createdAt,value
2023-02-25T00:00:30.469Z,78.40
2023-02-25T00:02:58.033Z,78.75
2023-02-25T00:05:24.812Z,78.11
2023-02-25T00:07:51.161Z,79.22
2023-02-25T00:10:17.630Z,79.02
2023-02-25T00:12:44.206Z,78.87
2023-02-25T00:15:11.123Z,79.00
2023-02-25T00:17:39.832Z,78.87
2023-02-25T00:20:09.671Z,79.40
2023-02-25T00:22:36.452Z,78.95
2023-02-25T00:25:02.797Z,79.19
2023-02-25T00:27:29.109Z,79.25
2023-02-25T00:29:55.491Z,78.94
2023-02-25T00:32:22.689Z,79.11
2023-02-25T00:34:49.152Z,78.67
2023-02-25T00:37:15.633Z,78.45
2023-02-25T00:39:42.419Z,79.25
2023-02-25T00:42:10.000Z,79.18
2023-02-25T00:44:36.973Z,79.25
2023-02-25T00:47:03.653Z,78.55
2023-02-25T00:49:32.378Z,78.92
2023-02-25T00:52:00.167Z,78.90
2023-02-25T00:54:26.616Z,79.36
2023-02-25T00:56:53.125Z,79.12
2023-02-25T00:59:19.459Z,78.85
2023-02-25T01:01:45.852Z,78.57
2023-02-25T01:04:12.208Z,79.49
2023-02-25T01:06:38.921Z,78.74
2023-02-25T01:09:06.932Z,79.09
2023-02-25T01:11:35.189Z,78.56
2023-02-25T01:14:02.893Z,78.47
2023-02-25T01:16:30.522Z,78.92
2023-02-25T01:18:58.988Z,78.56
2023-02-25T01:21:26.830Z,78.05
2023-02-25T01:24:00.974Z,78.40
2023-02-25T01:26:28.216Z,77.88
2023-02-25T01:28:55.818Z,78.35
2023-02-25T01:31:29.137Z,77.84
2023-02-25T01:33:59.535Z,78.48
2023-02-25T01:36:26.207Z,78.76
2023-02-25T01:38:52.726Z,79.20
2023-02-25T01:41:19.108Z,78.20
2023-02-25T01:44:04.223Z,78.17
2023-02-25T01:46:30.678Z,78.51
2023-02-25T01:48:57.087Z,78.38
2023-02-25T01:51:27.063Z,78.75
2023-02-25T01:53:54.628Z,78.38
2023-02-25T01:56:22.736Z,78.89
2023-02-25T01:58:49.438Z,79.32
2023-02-25T02:01:17.829Z,78.27
2023-02-25T02:03:44.198Z,78.65
2023-02-25T02:06:13.214Z,79.34
2023-02-25T02:08:40.841Z,77.87
2023-02-25T02:11:07.313Z,78.31
2023-02-25T02:13:35.383Z,78.27
2023-02-25T02:16:04.460Z,79.84
2023-02-25T02:18:33.827Z,78.45
2023-02-25T02:21:09.591Z,78.69
2023-02-25T02:23:35.856Z,78.88
2023-02-25T02:26:08.360Z,78.76
2023-02-25T02:28:37.748Z,78.67
2023-02-25T02:31:07.170Z,78.11
2023-02-25T02:33:44.389Z,78.42
2023-02-25T02:36:21.042Z,77.99
2023-02-25T02:38:53.753Z,78.47
2023-02-25T02:41:19.998Z,78.92
2023-02-25T02:43:46.250Z,78.50
2023-02-25T02:46:21.470Z,79.43
2023-02-25T02:48:51.958Z,78.97
2023-02-25T02:51:25.462Z,78.47
2023-02-25T02:53:56.619Z,78.19
2023-02-25T02:56:24.764Z,78.94
2023-02-25T02:58:53.459Z,78.78
2023-02-25T03:01:24.078Z,78.33
2023-02-25T03:03:59.710Z,78.73
2023-02-25T03:06:30.440Z,78.35
2023-02-25T03:09:01.235Z,78.97
2023-02-25T03:11:27.673Z,78.24
2023-02-25T03:13:54.061Z,79.11
2023-02-25T03:16:27.838Z,79.11
2023-02-25T03:18:59.136Z,78.78
2023-02-25T03:21:28.793Z,78.34
2023-02-25T03:23:55.540Z,78.69
2023-02-25T03:26:24.372Z,78.09
2023-02-25T03:28:50.873Z,78.37
2023-02-25T03:31:21.579Z,78.85
2023-02-25T03:34:01.045Z,78.07
2023-02-25T03:36:31.228Z,78.76
2023-02-25T03:39:00.670Z,78.44
2023-02-25T03:41:30.392Z,77.92
2023-02-25T03:43:58.225Z,78.84
2023-02-25T03:46:25.907Z,78.81
2023-02-25T03:48:54.399Z,79.11
2023-02-25T03:51:23.536Z,77.89
2023-02-25T03:53:50.226Z,78.30
2023-02-25T03:56:16.738Z,78.98
2023-02-25T03:58:43.434Z,78.87
2023-02-25T04:01:17.099Z,78.80
2023-02-25T04:03:43.971Z,78.48
2023-02-25T04:06:11.875Z,78.87
2023-02-25T04:08:38.344Z,78.26
2023-02-25T04:11:04.746Z,78.82
2023-02-25T04:13:31.048Z,77.55
2023-02-25T04:15:57.423Z,78.20
2023-02-25T04:18:24.915Z,77.41
2023-02-25T04:20:51.321Z,77.80
2023-02-25T04:23:17.617Z,77.63
2023-02-25T04:25:43.987Z,77.21
2023-02-25T04:28:10.747Z,77.58
2023-02-25T04:30:37.790Z,77.28
2023-02-25T04:33:04.124Z,77.82
2023-02-25T04:35:30.414Z,77.04
2023-02-25T04:37:56.766Z,77.39
2023-02-25T04:40:24.275Z,77.81
2023-02-25T04:42:51.554Z,77.22
2023-02-25T04:45:18.364Z,77.41
2023-02-25T04:47:44.691Z,77.41
2023-02-25T04:50:11.660Z,77.07
2023-02-25T04:52:38.058Z,77.00
2023-02-25T04:55:05.208Z,77.28
2023-02-25T04:57:31.502Z,77.19
2023-02-25T04:59:57.918Z,76.99
2023-02-25T05:02:24.263Z,76.93
2023-02-25T05:04:50.570Z,77.84
2023-02-25T05:07:16.937Z,77.34
2023-02-25T05:09:44.028Z,76.43
2023-02-25T05:12:10.321Z,77.53
2023-02-25T05:14:37.052Z,76.81
2023-02-25T05:17:04.640Z,76.45
2023-02-25T05:19:31.011Z,77.31
2023-02-25T05:21:57.388Z,77.23
2023-02-25T05:24:24.039Z,77.39
2023-02-25T05:26:51.528Z,77.30
2023-02-25T05:29:17.862Z,76.77
2023-02-25T05:31:44.413Z,77.50
2023-02-25T05:34:10.873Z,77.83
2023-02-25T05:36:37.178Z,77.84
2023-02-25T05:39:03.534Z,77.36
2023-02-25T05:41:30.543Z,77.30
2023-02-25T05:43:58.095Z,77.74
2023-02-25T05:46:25.359Z,77.53
2023-02-25T05:48:51.972Z,77.43
2023-02-25T05:51:20.188Z,76.98
2023-02-25T05:53:47.862Z,77.06
2023-02-25T05:56:16.136Z,77.62
2023-02-25T05:58:42.568Z,77.89
2023-02-25T06:01:11.443Z,78.01
2023-02-25T06:03:38.553Z,77.45
2023-02-25T06:06:05.316Z,77.12
2023-02-25T06:08:31.722Z,77.17
2023-02-25T06:11:00.107Z,76.60
2023-02-25T06:13:26.699Z,77.38
2023-02-25T06:15:53.769Z,77.50
2023-02-25T06:18:20.382Z,77.74
2023-02-25T06:20:46.717Z,77.54
2023-02-25T06:23:13.252Z,77.47
2023-02-25T06:25:39.560Z,77.20
2023-02-25T06:28:05.901Z,78.06
2023-02-25T06:30:32.333Z,78.51
2023-02-25T06:32:58.626Z,77.03
2023-02-25T06:35:25.149Z,77.19
2023-02-25T06:37:55.441Z,77.83
2023-02-25T06:40:21.754Z,78.01
2023-02-25T06:42:48.203Z,78.05
2023-02-25T06:45:15.240Z,78.59
2023-02-25T06:47:41.547Z,78.85
2023-02-25T06:50:08.568Z,78.01
2023-02-25T06:52:34.925Z,78.37
2023-02-25T06:55:01.214Z,77.98
2023-02-25T06:57:27.853Z,78.53
2023-02-25T06:59:54.237Z,78.17
2023-02-25T07:02:20.527Z,78.29
2023-02-25T07:04:46.858Z,77.47
2023-02-25T07:07:13.291Z,77.91
2023-02-25T07:09:39.588Z,77.61
2023-02-25T07:12:06.004Z,77.31
2023-02-25T07:14:32.341Z,77.60
2023-02-25T07:16:58.640Z,77.77
2023-02-25T07:19:24.978Z,77.47
2023-02-25T07:21:51.301Z,77.04
2023-02-25T07:24:17.700Z,77.13
2023-02-25T07:26:44.133Z,76.57
2023-02-25T07:29:10.495Z,76.93
2023-02-25T07:31:36.875Z,77.64
2023-02-25T07:34:04.374Z,77.67
2023-02-25T07:36:32.975Z,77.87
2023-02-25T07:38:59.989Z,78.44
2023-02-25T07:41:26.344Z,77.42
2023-02-25T07:43:52.639Z,77.16
2023-02-25T07:46:19.026Z,76.23
2023-02-25T07:48:45.421Z,76.30
2023-02-25T07:51:13.686Z,76.48
2023-02-25T07:53:40.034Z,76.44
2023-02-25T07:56:06.830Z,76.61
2023-02-25T07:58:34.003Z,76.33
2023-02-25T08:01:00.400Z,76.60
2023-02-25T08:03:26.797Z,76.45
2023-02-25T08:05:57.474Z,76.90
2023-02-25T08:08:23.824Z,76.76
2023-02-25T08:10:50.169Z,77.29
2023-02-25T08:13:16.446Z,76.51
2023-02-25T08:15:43.230Z,77.23
2023-02-25T08:18:09.876Z,77.22
2023-02-25T08:20:36.372Z,76.24
2023-02-25T08:23:02.987Z,77.29
2023-02-25T08:25:29.318Z,78.21
2023-02-25T08:27:55.605Z,77.43
2023-02-25T08:30:21.905Z,76.65
2023-02-25T08:32:48.294Z,77.40
2023-02-25T08:35:15.265Z,76.54
2023-02-25T08:37:44.669Z,75.85
2023-02-25T08:40:11.357Z,76.34
2023-02-25T08:42:37.691Z,76.65
2023-02-25T08:45:04.608Z,77.01
2023-02-25T08:47:31.250Z,76.42
2023-02-25T08:49:57.548Z,77.45
2023-02-25T08:52:23.846Z,77.09
2023-02-25T08:54:51.357Z,76.93
2023-02-25T08:57:17.665Z,77.28
2023-02-25T08:59:44.045Z,77.00
2023-02-25T09:02:15.098Z,76.50
2023-02-25T09:04:41.453Z,77.66
2023-02-25T09:07:07.948Z,76.34
2023-02-25T09:09:34.357Z,77.30
2023-02-25T09:12:01.277Z,76.53
2023-02-25T09:14:27.645Z,76.79
2023-02-25T09:16:54.027Z,75.74
2023-02-25T09:19:20.721Z,76.81
2023-02-25T09:21:48.215Z,77.01
2023-02-25T09:24:14.924Z,76.87
2023-02-25T09:26:41.319Z,75.61
2023-02-25T09:29:07.939Z,75.65
2023-02-25T09:31:36.946Z,76.31
2023-02-25T09:34:06.492Z,74.65
2023-02-25T09:36:33.306Z,74.59
2023-02-25T09:38:59.782Z,74.96
2023-02-25T09:41:33.110Z,75.83
2023-02-25T09:44:19.691Z,73.83
2023-02-25T09:46:58.234Z,75.04
2023-02-25T09:49:30.109Z,74.59
2023-02-25T09:52:03.009Z,74.74
2023-02-25T09:54:37.482Z,74.56
2023-02-25T09:57:04.529Z,74.27
2023-02-25T09:59:30.998Z,74.30
2023-02-25T10:02:01.249Z,74.36
2023-02-25T10:04:34.034Z,74.62
2023-02-25T10:07:16.488Z,74.02
2023-02-25T10:09:44.884Z,74.88
2023-02-25T10:12:13.241Z,75.01
2023-02-25T10:14:42.730Z,75.19
2023-02-25T10:17:13.279Z,74.96
2023-02-25T10:19:39.614Z,74.78
2023-02-25T10:22:06.641Z,74.28
2023-02-25T10:24:37.153Z,74.07
2023-02-25T10:27:18.885Z,72.96
2023-02-25T10:29:50.450Z,73.56
2023-02-25T10:32:27.120Z,74.01
2023-02-25T10:34:55.425Z,74.17
2023-02-25T10:37:28.927Z,72.92
2023-02-25T10:39:56.671Z,73.46
2023-02-25T10:42:23.299Z,73.14
2023-02-25T10:44:51.301Z,72.82
2023-02-25T10:47:37.958Z,72.63
2023-02-25T10:50:10.423Z,72.00
2023-02-25T10:52:51.170Z,72.87
2023-02-25T10:55:37.805Z,72.47
2023-02-25T10:58:05.444Z,72.01
2023-02-25T11:00:33.780Z,71.83
2023-02-25T11:03:03.879Z,71.79
2023-02-25T11:05:30.193Z,71.59
2023-02-25T11:07:56.991Z,72.00
2023-02-25T11:10:24.222Z,71.41
2023-02-25T11:12:55.325Z,71.46
2023-02-25T11:15:25.353Z,69.59
2023-02-25T11:18:06.018Z,69.65
2023-02-25T11:20:32.584Z,70.56
2023-02-25T11:22:59.371Z,70.14
2023-02-25T11:25:38.037Z,70.64
2023-02-25T11:28:07.961Z,69.88
2023-02-25T11:30:37.535Z,70.18
2023-02-25T11:33:33.389Z,71.42
2023-02-25T11:36:00.584Z,71.57
2023-02-25T11:38:33.894Z,71.50
2023-02-25T11:41:00.280Z,71.83
2023-02-25T11:43:28.780Z,72.37
2023-02-25T11:45:55.183Z,71.28
2023-02-25T11:48:30.437Z,71.72
2023-02-25T11:50:59.720Z,71.29
2023-02-25T11:53:44.974Z,70.96
2023-02-25T11:56:23.389Z,71.01
2023-02-25T11:59:13.446Z,70.15
2023-02-25T12:01:42.493Z,70.46
2023-02-25T12:04:18.655Z,69.67
2023-02-25T12:07:04.790Z,69.58
2023-02-25T12:09:45.191Z,69.81
2023-02-25T12:12:30.544Z,70.06
2023-02-25T12:15:02.943Z,70.43
2023-02-25T12:17:32.414Z,70.06
2023-02-25T12:20:21.465Z,71.13
2023-02-25T12:23:08.092Z,70.79
2023-02-25T12:25:48.671Z,70.28
2023-02-25T12:28:40.828Z,70.11
2023-02-25T12:31:07.409Z,69.62
2023-02-25T12:33:52.344Z,68.84
2023-02-25T12:36:31.412Z,68.85
2023-02-25T12:39:17.322Z,68.38
2023-02-25T12:42:02.867Z,68.10
2023-02-25T12:44:47.666Z,67.14
2023-02-25T12:47:33.366Z,67.28
2023-02-25T12:50:17.996Z,67.91
2023-02-25T12:52:50.567Z,67.78
2023-02-25T12:55:35.423Z,66.68
2023-02-25T12:58:20.054Z,66.19
2023-02-25T13:00:46.685Z,66.41
2023-02-25T13:03:22.712Z,65.96
2023-02-25T13:05:58.811Z,66.10
2023-02-25T13:08:25.458Z,65.59
2023-02-25T13:11:15.189Z,65.50
2023-02-25T13:13:48.567Z,65.64
2023-02-25T13:16:15.201Z,65.23
2023-02-25T13:18:50.920Z,65.02
2023-02-25T13:21:26.391Z,64.60
2023-02-25T13:24:02.262Z,65.30
2023-02-25T13:26:47.411Z,66.43
2023-02-25T13:29:16.948Z,65.54
2023-02-25T13:31:43.822Z,65.31
2023-02-25T13:34:13.421Z,65.29
2023-02-25T13:36:39.940Z,65.04
2023-02-25T13:39:12.383Z,65.27
2023-02-25T13:41:52.653Z,65.38
2023-02-25T13:44:32.380Z,65.81
2023-02-25T13:47:02.942Z,66.05
2023-02-25T13:49:32.046Z,66.46
2023-02-25T13:52:16.836Z,68.19
2023-02-25T13:54:52.756Z,67.29
2023-02-25T13:57:25.363Z,67.10
2023-02-25T14:00:02.563Z,68.41
2023-02-25T14:02:48.333Z,68.33
2023-02-25T14:05:14.684Z,70.19
2023-02-25T14:07:47.051Z,70.11
2023-02-25T14:10:32.251Z,70.11
2023-02-25T14:12:58.597Z,70.94
2023-02-25T14:15:43.768Z,70.21
2023-02-25T14:18:10.805Z,70.29
2023-02-25T14:20:55.968Z,71.00
2023-02-25T14:23:40.643Z,71.76
2023-02-25T14:26:19.880Z,72.79
2023-02-25T14:28:46.179Z,74.16
2023-02-25T14:31:18.913Z,74.96
2023-02-25T14:33:48.151Z,77.06
2023-02-25T14:36:33.339Z,78.53
2023-02-25T14:38:59.687Z,78.08
2023-02-25T14:41:38.256Z,78.51
2023-02-25T14:44:10.431Z,78.04
2023-02-25T14:46:41.212Z,79.47
2023-02-25T14:49:07.590Z,79.79
2023-02-25T14:51:36.826Z,79.07
2023-02-25T14:54:03.195Z,78.71
2023-02-25T14:56:29.495Z,77.75
2023-02-25T14:59:14.624Z,77.43
2023-02-25T15:01:55.519Z,76.22
2023-02-25T15:04:35.564Z,77.14
2023-02-25T15:07:17.609Z,76.49
2023-02-25T15:09:59.978Z,76.04
2023-02-25T15:12:44.445Z,74.67
2023-02-25T15:15:29.885Z,73.86
2023-02-25T15:17:56.549Z,73.83
2023-02-25T15:20:26.038Z,73.32
2023-02-25T15:22:55.728Z,72.54
2023-02-25T15:25:23.241Z,73.32
2023-02-25T15:27:50.622Z,71.87
2023-02-25T15:30:21.962Z,72.21
2023-02-25T15:32:57.789Z,72.07
2023-02-25T15:35:44.703Z,71.18
2023-02-25T15:38:14.592Z,70.60
2023-02-25T15:40:44.890Z,70.48
2023-02-25T15:43:14.604Z,69.84
2023-02-25T15:45:42.261Z,70.77
2023-02-25T15:48:11.655Z,71.10
2023-02-25T15:50:44.167Z,71.59
2023-02-25T15:53:30.912Z,70.28
2023-02-25T15:56:03.367Z,69.56
2023-02-25T15:58:30.161Z,69.89
2023-02-25T16:00:56.737Z,69.53
2023-02-25T16:03:26.038Z,69.47
2023-02-25T16:05:53.738Z,69.47
2023-02-25T16:08:28.633Z,69.97
2023-02-25T16:10:56.211Z,69.67
2023-02-25T16:13:33.215Z,69.07
2023-02-25T16:16:02.047Z,69.31
2023-02-25T16:18:28.418Z,69.40
2023-02-25T16:20:59.275Z,69.66
2023-02-25T16:23:25.777Z,69.38
2023-02-25T16:26:11.018Z,70.21
2023-02-25T16:28:49.482Z,68.69
2023-02-25T16:31:19.100Z,68.92
2023-02-25T16:33:48.418Z,68.91
2023-02-25T16:36:18.876Z,68.84
2023-02-25T16:39:03.338Z,69.52
2023-02-25T16:41:37.723Z,68.60
2023-02-25T16:44:05.400Z,68.89
2023-02-25T16:46:33.342Z,69.29
2023-02-25T16:49:01.489Z,68.60
2023-02-25T16:51:31.926Z,68.53
2023-02-25T16:54:03.049Z,69.30
2023-02-25T16:56:30.454Z,68.42
2023-02-25T16:58:59.607Z,68.12
2023-02-25T17:01:27.505Z,68.86
2023-02-25T17:04:00.115Z,69.42
2023-02-25T17:06:26.629Z,69.64
2023-02-25T17:08:53.087Z,69.50
2023-02-25T17:11:22.351Z,69.99
2023-02-25T17:13:51.256Z,70.23
2023-02-25T17:16:21.372Z,70.17
2023-02-25T17:18:53.515Z,69.39
2023-02-25T17:21:23.788Z,69.52
2023-02-25T17:23:51.268Z,69.63
2023-02-25T17:26:18.451Z,70.02
2023-02-25T17:28:46.080Z,69.79
2023-02-25T17:31:15.037Z,68.87
2023-02-25T17:33:49.310Z,69.56
2023-02-25T17:36:17.869Z,69.44
2023-02-25T17:38:44.637Z,69.81
2023-02-25T17:41:21.183Z,69.53
2023-02-25T17:43:47.579Z,69.24
2023-02-25T17:46:31.062Z,69.25
2023-02-25T17:48:59.549Z,68.87
2023-02-25T17:51:37.049Z,69.78
2023-02-25T17:54:08.259Z,69.16
2023-02-25T17:56:35.251Z,68.23
2023-02-25T17:59:04.648Z,68.68
2023-02-25T18:01:44.116Z,68.41
2023-02-25T18:04:25.045Z,68.56
2023-02-25T18:06:52.451Z,68.05
2023-02-25T18:09:37.274Z,67.73
2023-02-25T18:12:05.405Z,67.41
2023-02-25T18:14:31.945Z,68.03
2023-02-25T18:16:58.390Z,67.75
2023-02-25T18:19:27.029Z,66.87
2023-02-25T18:21:54.032Z,67.42
2023-02-25T18:24:24.456Z,67.20
2023-02-25T18:27:26.795Z,66.91
2023-02-25T18:29:54.440Z,67.00
2023-02-25T18:32:20.797Z,66.85
2023-02-25T18:34:47.163Z,66.90
2023-02-25T18:37:14.993Z,66.48
2023-02-25T18:39:41.377Z,66.68
2023-02-25T18:42:12.554Z,66.71
2023-02-25T18:44:38.942Z,65.94
2023-02-25T18:47:05.373Z,67.21
2023-02-25T18:49:31.824Z,66.64
2023-02-25T18:51:58.133Z,65.82
2023-02-25T18:54:24.441Z,65.84
2023-02-25T18:56:50.759Z,65.96
2023-02-25T18:59:17.142Z,66.19
2023-02-25T19:01:43.762Z,66.29
2023-02-25T19:04:14.850Z,66.24
2023-02-25T19:06:41.157Z,66.18
2023-02-25T19:09:07.623Z,65.50
2023-02-25T19:11:36.246Z,65.41
2023-02-25T19:14:04.078Z,65.41
2023-02-25T19:16:30.759Z,66.30
2023-02-25T19:18:57.089Z,65.80
2023-02-25T19:21:23.436Z,66.36
2023-02-25T19:23:51.824Z,65.69
2023-02-25T19:26:18.560Z,65.62
2023-02-25T19:28:45.306Z,65.96
2023-02-25T19:31:12.474Z,65.59
2023-02-25T19:33:39.193Z,65.29
2023-02-25T19:36:05.615Z,65.41
2023-02-25T19:38:32.210Z,65.56
2023-02-25T19:41:03.726Z,66.14
2023-02-25T19:43:30.887Z,65.87
2023-02-25T19:45:57.224Z,66.19
2023-02-25T19:48:23.577Z,66.70
2023-02-25T19:50:49.899Z,65.96
2023-02-25T19:53:16.269Z,66.52
2023-02-25T19:55:43.155Z,65.84
2023-02-25T19:58:09.663Z,66.36
2023-02-25T20:00:36.176Z,66.12
2023-02-25T20:03:02.687Z,66.56
2023-02-25T20:05:29.156Z,66.12
2023-02-25T20:07:55.496Z,66.71
2023-02-25T20:10:22.220Z,67.35
2023-02-25T20:12:49.063Z,67.15
2023-02-25T20:15:15.945Z,67.08
2023-02-25T20:17:42.831Z,67.01
2023-02-25T20:20:09.977Z,66.26
2023-02-25T20:22:36.477Z,67.04
2023-02-25T20:25:03.002Z,66.81
2023-02-25T20:27:29.315Z,66.99
2023-02-25T20:29:55.692Z,67.16
2023-02-25T20:32:22.130Z,67.24
2023-02-25T20:34:48.644Z,67.02
2023-02-25T20:37:19.479Z,66.99
2023-02-25T20:39:53.372Z,67.04
2023-02-25T20:42:21.122Z,67.85
2023-02-25T20:44:50.909Z,67.14
2023-02-25T20:47:25.293Z,67.26
2023-02-25T20:49:51.731Z,66.93
2023-02-25T20:52:19.878Z,66.50
2023-02-25T20:54:46.695Z,66.21
2023-02-25T20:57:14.354Z,66.58
2023-02-25T20:59:40.699Z,67.07
2023-02-25T21:02:07.429Z,67.03
2023-02-25T21:04:34.234Z,66.41
2023-02-25T21:07:00.723Z,66.27
2023-02-25T21:09:27.189Z,66.46
2023-02-25T21:11:53.486Z,66.84
2023-02-25T21:14:19.946Z,66.16
2023-02-25T21:16:46.365Z,66.32
2023-02-25T21:19:12.787Z,65.57
2023-02-25T21:21:39.098Z,66.74
2023-02-25T21:24:06.492Z,66.38
2023-02-25T21:26:33.249Z,66.08
2023-02-25T21:28:59.974Z,66.39
2023-02-25T21:31:26.422Z,65.27
2023-02-25T21:33:52.927Z,65.82
2023-02-25T21:36:19.378Z,65.65
2023-02-25T21:38:45.750Z,66.11
2023-02-25T21:41:13.489Z,65.89
2023-02-25T21:43:40.503Z,65.93
2023-02-25T21:46:08.123Z,65.84
2023-02-25T21:48:34.646Z,65.91
2023-02-25T21:51:00.999Z,64.93
2023-02-25T21:53:27.574Z,64.89
2023-02-25T21:55:54.540Z,64.73
2023-02-25T21:58:20.960Z,64.66
2023-02-25T22:00:47.407Z,64.54
2023-02-25T22:03:13.793Z,65.36
2023-02-25T22:05:44.224Z,64.51
2023-02-25T22:08:10.562Z,64.85
2023-02-25T22:10:37.251Z,64.79
2023-02-25T22:13:03.896Z,65.02
2023-02-25T22:15:30.230Z,64.86
2023-02-25T22:17:56.587Z,64.86
2023-02-25T22:20:23.021Z,64.35
2023-02-25T22:22:49.369Z,64.01
2023-02-25T22:25:15.717Z,65.11
2023-02-25T22:27:42.110Z,64.19
2023-02-25T22:30:08.822Z,64.66
2023-02-25T22:32:36.493Z,64.03
2023-02-25T22:35:03.173Z,64.37
2023-02-25T22:37:31.265Z,64.23
2023-02-25T22:39:57.603Z,64.37
2023-02-25T22:42:25.146Z,64.51
2023-02-25T22:44:51.525Z,64.50
2023-02-25T22:47:17.842Z,64.72
2023-02-25T22:49:44.220Z,64.40
2023-02-25T22:52:10.546Z,64.11
2023-02-25T22:54:37.228Z,64.11
2023-02-25T22:57:03.648Z,64.19
2023-02-25T22:59:30.050Z,64.23
2023-02-25T23:01:59.185Z,63.94
2023-02-25T23:04:25.668Z,64.09
2023-02-25T23:06:54.163Z,64.00
2023-02-25T23:09:20.529Z,64.38
2023-02-25T23:11:46.935Z,64.03
2023-02-25T23:14:14.229Z,63.94
2023-02-25T23:16:41.982Z,64.23
2023-02-25T23:19:09.761Z,63.87
2023-02-25T23:21:38.442Z,65.04
2023-02-25T23:24:07.338Z,64.41
2023-02-25T23:26:37.744Z,64.03
2023-02-25T23:29:05.601Z,64.06
2023-02-25T23:31:36.390Z,63.87
2023-02-25T23:34:08.806Z,64.26
2023-02-25T23:36:36.302Z,64.94
2023-02-25T23:39:04.893Z,64.30
2023-02-25T23:41:31.369Z,64.72
2023-02-25T23:43:58.931Z,64.71
2023-02-25T23:46:26.616Z,64.27
2023-02-25T23:49:00.713Z,64.32
2023-02-25T23:51:27.546Z,64.16
2023-02-25T23:53:58.174Z,64.45
2023-02-25T23:56:27.057Z,64.79
2023-02-25T23:58:54.036Z,64.33
